sensor_id;sensor_type;location;lat;lon;timestamp;pressure;altitude;pressure_sealevel;temperature;humidity
35226;BME280;21813;49.686;21.766;2022-10-16T00:00:36;98766.59;;;11.85;100.00
35226;BME280;21813;49.686;21.766;2022-10-16T00:03:22;98755.09;;;11.77;100.00
35226;BME280;21813;49.686;21.766;2022-10-16T00:05:49;98774.91;;;11.79;100.00
35226;BME280;21813;49.686;21.766;2022-10-16T00:08:14;98770.19;;;11.73;100.00
35226;BME280;21813;49.686;21.766;2022-10-16T00:10:42;98762.34;;;11.73;100.00
35226;BME280;21813;49.686;21.766;2022-10-16T00:13:07;98768.50;;;11.72;100.00
35226;BME280;21813;49.686;21.766;2022-10-16T00:15:36;98771.19;;;11.71;100.00
35226;BME280;21813;49.686;21.766;2022-10-16T00:18:04;98770.38;;;11.70;100.00
35226;BME280;21813;49.686;21.766;2022-10-16T00:20:34;98767.06;;;11.68;100.00
35226;BME280;21813;49.686;21.766;2022-10-16T00:23:01;98763.72;;;11.66;100.00
35226;BME280;21813;49.686;21.766;2022-10-16T00:25:29;98769.66;;;11.68;100.00
35226;BME280;21813;49.686;21.766;2022-10-16T00:27:59;98762.88;;;11.66;100.00
35226;BME280;21813;49.686;21.766;2022-10-16T00:30:26;98776.91;;;11.65;100.00
35226;BME280;21813;49.686;21.766;2022-10-16T00:32:53;98765.84;;;11.61;100.00
35226;BME280;21813;49.686;21.766;2022-10-16T00:35:20;98768.81;;;11.57;100.00
35226;BME280;21813;49.686;21.766;2022-10-16T00:37:45;98777.00;;;11.52;100.00
35226;BME280;21813;49.686;21.766;2022-10-16T00:40:12;98787.69;;;11.49;100.00
35226;BME280;21813;49.686;21.766;2022-10-16T00:42:38;98791.50;;;11.45;100.00
35226;BME280;21813;49.686;21.766;2022-10-16T00:45:05;98794.56;;;11.39;100.00
35226;BME280;21813;49.686;21.766;2022-10-16T00:47:36;98786.25;;;11.34;100.00
35226;BME280;21813;49.686;21.766;2022-10-16T00:50:11;98785.78;;;11.29;100.00
35226;BME280;21813;49.686;21.766;2022-10-16T00:52:41;98790.50;;;11.24;100.00
35226;BME280;21813;49.686;21.766;2022-10-16T00:55:09;98804.63;;;11.21;100.00
35226;BME280;21813;49.686;21.766;2022-10-16T00:57:35;98797.97;;;11.17;100.00
35226;BME280;21813;49.686;21.766;2022-10-16T01:00:04;98794.78;;;11.14;100.00
35226;BME280;21813;49.686;21.766;2022-10-16T01:02:31;98807.81;;;11.14;100.00
35226;BME280;21813;49.686;21.766;2022-10-16T01:04:58;98816.59;;;11.13;100.00
35226;BME280;21813;49.686;21.766;2022-10-16T01:13:07;98825.00;;;11.05;100.00
35226;BME280;21813;49.686;21.766;2022-10-16T01:15:42;98817.28;;;11.03;100.00
35226;BME280;21813;49.686;21.766;2022-10-16T01:18:21;98822.50;;;11.03;100.00
35226;BME280;21813;49.686;21.766;2022-10-16T01:21:12;98821.75;;;11.01;100.00
35226;BME280;21813;49.686;21.766;2022-10-16T01:24:03;98815.94;;;10.98;100.00
35226;BME280;21813;49.686;21.766;2022-10-16T01:31:40;98812.50;;;10.97;100.00
35226;BME280;21813;49.686;21.766;2022-10-16T01:34:13;98818.31;;;11.01;100.00
35226;BME280;21813;49.686;21.766;2022-10-16T01:36:56;98808.13;;;10.98;100.00
35226;BME280;21813;49.686;21.766;2022-10-16T01:39:26;98812.50;;;10.97;100.00
35226;BME280;21813;49.686;21.766;2022-10-16T01:41:59;98823.53;;;11.01;100.00
35226;BME280;21813;49.686;21.766;2022-10-16T01:44:26;98829.72;;;11.00;100.00
35226;BME280;21813;49.686;21.766;2022-10-16T01:46:56;98824.00;;;10.95;100.00
35226;BME280;21813;49.686;21.766;2022-10-16T01:49:25;98825.34;;;11.00;100.00
35226;BME280;21813;49.686;21.766;2022-10-16T01:51:56;98826.97;;;11.01;100.00
35226;BME280;21813;49.686;21.766;2022-10-16T01:54:28;98822.84;;;10.99;100.00
35226;BME280;21813;49.686;21.766;2022-10-16T01:56:55;98819.41;;;10.98;100.00
35226;BME280;21813;49.686;21.766;2022-10-16T01:59:24;98823.66;;;10.99;100.00
35226;BME280;21813;49.686;21.766;2022-10-16T02:02:00;98813.25;;;10.99;100.00
35226;BME280;21813;49.686;21.766;2022-10-16T02:04:31;98821.06;;;10.99;100.00
35226;BME280;21813;49.686;21.766;2022-10-16T02:06:58;98824.38;;;11.01;100.00
35226;BME280;21813;49.686;21.766;2022-10-16T02:09:24;98817.28;;;11.03;100.00
35226;BME280;21813;49.686;21.766;2022-10-16T02:11:54;98808.28;;;11.07;100.00
35226;BME280;21813;49.686;21.766;2022-10-16T02:14:21;98810.28;;;11.15;100.00
35226;BME280;21813;49.686;21.766;2022-10-16T02:16:50;98816.13;;;11.19;100.00
35226;BME280;21813;49.686;21.766;2022-10-16T02:19:17;98821.47;;;11.28;100.00
35226;BME280;21813;49.686;21.766;2022-10-16T02:21:54;98819.34;;;11.33;100.00
35226;BME280;21813;49.686;21.766;2022-10-16T02:27:17;98826.13;;;11.36;100.00
35226;BME280;21813;49.686;21.766;2022-10-16T02:29:48;98834.78;;;11.36;100.00
35226;BME280;21813;49.686;21.766;2022-10-16T02:32:21;98825.41;;;11.34;100.00
35226;BME280;21813;49.686;21.766;2022-10-16T02:34:49;98830.50;;;11.35;100.00
35226;BME280;21813;49.686;21.766;2022-10-16T02:37:17;98843.31;;;11.38;100.00
35226;BME280;21813;49.686;21.766;2022-10-16T02:39:44;98845.72;;;11.41;100.00
35226;BME280;21813;49.686;21.766;2022-10-16T02:42:14;98849.97;;;11.42;100.00
35226;BME280;21813;49.686;21.766;2022-10-16T02:44:40;98845.47;;;11.44;100.00
35226;BME280;21813;49.686;21.766;2022-10-16T02:47:07;98848.91;;;11.45;100.00
35226;BME280;21813;49.686;21.766;2022-10-16T02:49:33;98854.13;;;11.45;100.00
35226;BME280;21813;49.686;21.766;2022-10-16T02:51:59;98849.75;;;11.45;100.00
35226;BME280;21813;49.686;21.766;2022-10-16T02:54:25;98850.59;;;11.46;100.00
35226;BME280;21813;49.686;21.766;2022-10-16T02:56:51;98850.59;;;11.46;100.00
35226;BME280;21813;49.686;21.766;2022-10-16T02:59:17;98848.81;;;11.46;100.00
35226;BME280;21813;49.686;21.766;2022-10-16T03:01:43;98849.50;;;11.48;100.00
35226;BME280;21813;49.686;21.766;2022-10-16T03:04:09;98853.69;;;11.51;100.00
35226;BME280;21813;49.686;21.766;2022-10-16T03:06:36;98842.50;;;11.49;100.00
35226;BME280;21813;49.686;21.766;2022-10-16T03:09:01;98848.69;;;11.48;100.00
35226;BME280;21813;49.686;21.766;2022-10-16T03:11:29;98853.78;;;11.49;100.00
35226;BME280;21813;49.686;21.766;2022-10-16T03:13:57;98839.91;;;11.49;100.00
35226;BME280;21813;49.686;21.766;2022-10-16T03:16:23;98847.63;;;11.50;100.00
35226;BME280;21813;49.686;21.766;2022-10-16T03:18:49;98854.13;;;11.56;100.00
35226;BME280;21813;49.686;21.766;2022-10-16T03:21:16;98860.34;;;11.55;100.00
35226;BME280;21813;49.686;21.766;2022-10-16T03:23:42;98851.53;;;11.56;100.00
35226;BME280;21813;49.686;21.766;2022-10-16T03:26:08;98849.75;;;11.57;100.00
35226;BME280;21813;49.686;21.766;2022-10-16T03:28:34;98857.38;;;11.60;100.00
35226;BME280;21813;49.686;21.766;2022-10-16T03:31:01;98860.69;;;11.62;100.00
35226;BME280;21813;49.686;21.766;2022-10-16T03:33:26;98865.78;;;11.63;100.00
35226;BME280;21813;49.686;21.766;2022-10-16T03:35:54;98862.25;;;11.64;100.00
35226;BME280;21813;49.686;21.766;2022-10-16T03:38:21;98868.16;;;11.66;100.00
35226;BME280;21813;49.686;21.766;2022-10-16T03:40:47;98857.13;;;11.63;100.00
35226;BME280;21813;49.686;21.766;2022-10-16T03:43:13;98869.59;;;11.70;100.00
35226;BME280;21813;49.686;21.766;2022-10-16T03:45:40;98869.59;;;11.70;100.00
35226;BME280;21813;49.686;21.766;2022-10-16T03:48:06;98879.09;;;11.71;100.00
35226;BME280;21813;49.686;21.766;2022-10-16T03:50:33;98880.69;;;11.74;100.00
35226;BME280;21813;49.686;21.766;2022-10-16T03:52:58;98879.59;;;11.76;100.00
35226;BME280;21813;49.686;21.766;2022-10-16T03:55:25;98872.72;;;11.75;100.00
35226;BME280;21813;49.686;21.766;2022-10-16T03:57:51;98869.41;;;11.73;100.00
35226;BME280;21813;49.686;21.766;2022-10-16T04:00:18;98866.66;;;11.75;100.00
35226;BME280;21813;49.686;21.766;2022-10-16T04:02:44;98869.41;;;11.73;100.00
35226;BME280;21813;49.686;21.766;2022-10-16T04:05:10;98864.88;;;11.75;100.00
35226;BME280;21813;49.686;21.766;2022-10-16T04:07:36;98867.97;;;11.80;100.00
35226;BME280;21813;49.686;21.766;2022-10-16T04:10:03;98872.25;;;11.81;100.00
35226;BME280;21813;49.686;21.766;2022-10-16T04:12:29;98866.09;;;11.82;100.00
35226;BME280;21813;49.686;21.766;2022-10-16T04:14:56;98866.56;;;11.87;100.00
35226;BME280;21813;49.686;21.766;2022-10-16T04:17:21;98871.78;;;11.87;100.00
35226;BME280;21813;49.686;21.766;2022-10-16T04:19:49;98873.22;;;11.91;100.00
35226;BME280;21813;49.686;21.766;2022-10-16T04:22:14;98876.53;;;11.93;100.00
35226;BME280;21813;49.686;21.766;2022-10-16T04:24:41;98875.56;;;11.94;100.00
35226;BME280;21813;49.686;21.766;2022-10-16T04:27:07;98882.38;;;11.97;100.00
35226;BME280;21813;49.686;21.766;2022-10-16T04:29:34;98881.75;;;11.93;100.00
35226;BME280;21813;49.686;21.766;2022-10-16T04:32:00;98881.53;;;11.97;100.00
35226;BME280;21813;49.686;21.766;2022-10-16T04:34:26;98881.53;;;11.97;100.00
35226;BME280;21813;49.686;21.766;2022-10-16T04:36:51;98887.69;;;11.95;100.00
35226;BME280;21813;49.686;21.766;2022-10-16T04:39:18;98890.31;;;11.95;100.00
35226;BME280;21813;49.686;21.766;2022-10-16T04:41:44;98890.06;;;11.99;100.00
35226;BME280;21813;49.686;21.766;2022-10-16T04:44:11;98888.19;;;12.01;100.00
35226;BME280;21813;49.686;21.766;2022-10-16T04:46:36;98884.00;;;11.98;100.00
35226;BME280;21813;49.686;21.766;2022-10-16T04:49:03;98893.41;;;12.01;100.00
35226;BME280;21813;49.686;21.766;2022-10-16T04:51:29;98905.53;;;12.02;100.00
35226;BME280;21813;49.686;21.766;2022-10-16T04:53:55;98902.19;;;12.00;100.00
35226;BME280;21813;49.686;21.766;2022-10-16T04:56:21;98904.78;;;12.00;100.00
35226;BME280;21813;49.686;21.766;2022-10-16T04:58:48;98910.75;;;12.02;100.00
35226;BME280;21813;49.686;21.766;2022-10-16T05:01:14;98908.00;;;12.03;100.00
35226;BME280;21813;49.686;21.766;2022-10-16T05:03:41;98911.44;;;12.04;100.00
35226;BME280;21813;49.686;21.766;2022-10-16T05:06:06;98909.66;;;12.04;100.00
35226;BME280;21813;49.686;21.766;2022-10-16T05:08:34;98923.47;;;12.06;100.00
35226;BME280;21813;49.686;21.766;2022-10-16T05:10:59;98914.88;;;12.04;100.00
35226;BME280;21813;49.686;21.766;2022-10-16T05:13:28;98923.56;;;12.05;100.00
35226;BME280;21813;49.686;21.766;2022-10-16T05:15:54;98918.59;;;12.02;100.00
35226;BME280;21813;49.686;21.766;2022-10-16T05:18:20;98921.91;;;12.04;100.00
35226;BME280;21813;49.686;21.766;2022-10-16T05:20:46;98927.84;;;12.06;100.00
35226;BME280;21813;49.686;21.766;2022-10-16T05:23:13;98920.34;;;12.01;100.00
35226;BME280;21813;49.686;21.766;2022-10-16T05:25:39;98934.97;;;12.04;100.00
35226;BME280;21813;49.686;21.766;2022-10-16T05:28:10;98929.97;;;12.01;100.00
35226;BME280;21813;49.686;21.766;2022-10-16T05:30:37;98934.97;;;12.04;100.00
35226;BME280;21813;49.686;21.766;2022-10-16T05:33:03;98931.41;;;12.05;100.00
35226;BME280;21813;49.686;21.766;2022-10-16T05:35:29;98934.75;;;12.07;100.00
35226;BME280;21813;49.686;21.766;2022-10-16T05:37:56;98944.09;;;12.09;100.00
35226;BME280;21813;49.686;21.766;2022-10-16T05:40:22;98934.50;;;12.10;100.00
35226;BME280;21813;49.686;21.766;2022-10-16T05:42:49;98943.88;;;12.12;100.00
35226;BME280;21813;49.686;21.766;2022-10-16T05:45:15;98948.03;;;12.15;100.00
35226;BME280;21813;49.686;21.766;2022-10-16T05:47:41;98957.19;;;12.20;100.00
35226;BME280;21813;49.686;21.766;2022-10-16T05:50:07;98950.88;;;12.23;100.00
35226;BME280;21813;49.686;21.766;2022-10-16T05:52:34;98954.22;;;12.25;100.00
35226;BME280;21813;49.686;21.766;2022-10-16T05:55:00;98961.47;;;12.32;100.00
35226;BME280;21813;49.686;21.766;2022-10-16T05:57:27;98958.75;;;12.34;100.00
35226;BME280;21813;49.686;21.766;2022-10-16T05:59:53;98968.00;;;12.38;100.00
35226;BME280;21813;49.686;21.766;2022-10-16T06:02:19;98956.34;;;12.42;100.00
35226;BME280;21813;49.686;21.766;2022-10-16T06:04:45;98956.69;;;12.49;100.00
35226;BME280;21813;49.686;21.766;2022-10-16T06:07:12;98958.94;;;12.53;100.00
35226;BME280;21813;49.686;21.766;2022-10-16T06:09:38;98971.56;;;12.59;100.00
35226;BME280;21813;49.686;21.766;2022-10-16T06:12:07;98969.41;;;12.64;100.00
35226;BME280;21813;49.686;21.766;2022-10-16T06:14:36;98965.94;;;12.75;100.00
35226;BME280;21813;49.686;21.766;2022-10-16T06:17:06;98972.56;;;12.90;100.00
35226;BME280;21813;49.686;21.766;2022-10-16T06:19:32;98968.41;;;12.99;99.48
35226;BME280;21813;49.686;21.766;2022-10-16T06:21:58;98977.91;;;13.11;98.80
35226;BME280;21813;49.686;21.766;2022-10-16T06:24:24;98986.91;;;13.18;98.40
35226;BME280;21813;49.686;21.766;2022-10-16T06:26:51;98982.16;;;13.23;97.51
35226;BME280;21813;49.686;21.766;2022-10-16T06:29:17;99001.41;;;13.33;97.35
35226;BME280;21813;49.686;21.766;2022-10-16T06:31:43;98988.84;;;13.48;96.27
35226;BME280;21813;49.686;21.766;2022-10-16T06:34:10;98995.19;;;13.66;95.84
35226;BME280;21813;49.686;21.766;2022-10-16T06:36:39;98999.47;;;13.88;94.74
35226;BME280;21813;49.686;21.766;2022-10-16T06:39:05;99007.84;;;14.23;93.41
35226;BME280;21813;49.686;21.766;2022-10-16T06:41:33;99009.28;;;14.57;91.01
35226;BME280;21813;49.686;21.766;2022-10-16T06:43:59;99008.69;;;14.75;89.42
35226;BME280;21813;49.686;21.766;2022-10-16T06:46:26;99012.16;;;14.94;87.80
35226;BME280;21813;49.686;21.766;2022-10-16T06:48:53;99006.28;;;15.12;86.86
35226;BME280;21813;49.686;21.766;2022-10-16T06:51:20;99017.06;;;15.18;86.61
35226;BME280;21813;49.686;21.766;2022-10-16T06:53:52;99019.88;;;15.45;84.80
35226;BME280;21813;49.686;21.766;2022-10-16T06:56:20;99025.47;;;15.81;83.66
35226;BME280;21813;49.686;21.766;2022-10-16T06:58:46;99016.94;;;16.25;81.86
35226;BME280;21813;49.686;21.766;2022-10-16T07:01:17;99010.53;;;16.74;78.29
35226;BME280;21813;49.686;21.766;2022-10-16T07:03:44;99031.88;;;17.08;76.86
35226;BME280;21813;49.686;21.766;2022-10-16T07:06:15;99013.06;;;17.39;75.62
35226;BME280;21813;49.686;21.766;2022-10-16T07:08:43;99020.59;;;17.61;72.70
35226;BME280;21813;49.686;21.766;2022-10-16T07:11:47;99008.97;;;17.89;72.25
35226;BME280;21813;49.686;21.766;2022-10-16T07:16:48;99021.84;;;18.62;69.00
35226;BME280;21813;49.686;21.766;2022-10-16T07:19:44;99029.09;;;19.02;67.59
35226;BME280;21813;49.686;21.766;2022-10-16T07:22:39;99021.03;;;19.53;65.91
35226;BME280;21813;49.686;21.766;2022-10-16T07:25:23;99026.00;;;19.72;64.54
35226;BME280;21813;49.686;21.766;2022-10-16T07:27:49;99024.69;;;19.76;64.38
35226;BME280;21813;49.686;21.766;2022-10-16T07:30:26;99028.63;;;20.13;63.05
35226;BME280;21813;49.686;21.766;2022-10-16T07:32:52;99040.44;;;20.82;61.13
35226;BME280;21813;49.686;21.766;2022-10-16T07:35:31;99036.75;;;21.60;58.42
35226;BME280;21813;49.686;21.766;2022-10-16T07:37:59;99047.44;;;22.21;55.83
35226;BME280;21813;49.686;21.766;2022-10-16T07:40:25;99043.03;;;22.95;53.50
35226;BME280;21813;49.686;21.766;2022-10-16T07:42:52;99053.19;;;23.06;53.80
35226;BME280;21813;49.686;21.766;2022-10-16T07:45:26;99048.28;;;21.98;54.75
35226;BME280;21813;49.686;21.766;2022-10-16T07:47:51;99057.97;;;20.91;58.19
35226;BME280;21813;49.686;21.766;2022-10-16T07:50:45;99053.44;;;19.79;62.16
35226;BME280;21813;49.686;21.766;2022-10-16T07:53:11;99050.44;;;19.08;64.83
35226;BME280;21813;49.686;21.766;2022-10-16T07:55:52;99055.88;;;18.47;66.22
35226;BME280;21813;49.686;21.766;2022-10-16T07:58:26;99052.34;;;17.95;68.49
35226;BME280;21813;49.686;21.766;2022-10-16T08:01:05;99066.38;;;17.60;69.87
35226;BME280;21813;49.686;21.766;2022-10-16T08:03:32;99060.16;;;17.34;71.45
35226;BME280;21813;49.686;21.766;2022-10-16T08:05:59;99064.69;;;17.14;72.21
35226;BME280;21813;49.686;21.766;2022-10-16T08:08:25;99055.91;;;16.96;73.41
35226;BME280;21813;49.686;21.766;2022-10-16T08:10:53;99059.56;;;16.85;73.41
35226;BME280;21813;49.686;21.766;2022-10-16T08:13:19;99066.66;;;16.75;74.11
35226;BME280;21813;49.686;21.766;2022-10-16T08:15:47;99073.63;;;16.66;75.60
35226;BME280;21813;49.686;21.766;2022-10-16T08:18:14;99070.47;;;16.63;75.47
35226;BME280;21813;49.686;21.766;2022-10-16T08:20:41;99076.03;;;16.60;74.71
35226;BME280;21813;49.686;21.766;2022-10-16T08:23:09;99083.47;;;16.55;75.36
35226;BME280;21813;49.686;21.766;2022-10-16T08:25:38;99083.22;;;16.58;75.71
35226;BME280;21813;49.686;21.766;2022-10-16T08:28:13;99071.00;;;16.57;73.82
35226;BME280;21813;49.686;21.766;2022-10-16T08:30:42;99078.50;;;16.61;73.52
35226;BME280;21813;49.686;21.766;2022-10-16T08:33:08;99080.69;;;16.66;73.56
35226;BME280;21813;49.686;21.766;2022-10-16T08:35:35;99094.38;;;16.69;73.91
35226;BME280;21813;49.686;21.766;2022-10-16T08:38:05;99089.41;;;16.76;73.07
35226;BME280;21813;49.686;21.766;2022-10-16T08:40:33;99083.56;;;16.82;72.58
35226;BME280;21813;49.686;21.766;2022-10-16T08:48:44;99086.78;;;17.03;70.81
35226;BME280;21813;49.686;21.766;2022-10-16T08:51:33;99081.91;;;17.08;71.03
35226;BME280;21813;49.686;21.766;2022-10-16T08:57:00;99095.38;;;17.33;70.89
35226;BME280;21813;49.686;21.766;2022-10-16T08:59:26;99092.84;;;17.41;71.01
35226;BME280;21813;49.686;21.766;2022-10-16T09:01:53;99090.28;;;17.49;70.41
35226;BME280;21813;49.686;21.766;2022-10-16T09:05:02;99083.88;;;17.61;68.59
35226;BME280;21813;49.686;21.766;2022-10-16T09:08:06;99086.28;;;17.72;69.04
35226;BME280;21813;49.686;21.766;2022-10-16T09:10:38;99090.94;;;17.78;68.70
35226;BME280;21813;49.686;21.766;2022-10-16T09:13:58;99093.66;;;17.86;69.25
35226;BME280;21813;49.686;21.766;2022-10-16T09:16:37;99092.22;;;17.92;68.32
35226;BME280;21813;49.686;21.766;2022-10-16T09:19:14;99092.28;;;18.00;68.08
35226;BME280;21813;49.686;21.766;2022-10-16T09:21:46;99097.13;;;18.04;68.64
35226;BME280;21813;49.686;21.766;2022-10-16T09:24:23;99081.81;;;18.08;69.30
35226;BME280;21813;49.686;21.766;2022-10-16T09:26:50;99104.56;;;18.09;68.28
35226;BME280;21813;49.686;21.766;2022-10-16T09:29:18;99097.63;;;18.08;67.71
35226;BME280;21813;49.686;21.766;2022-10-16T09:31:47;99087.91;;;18.08;68.04
35226;BME280;21813;49.686;21.766;2022-10-16T09:34:34;99095.16;;;18.06;67.75
35226;BME280;21813;49.686;21.766;2022-10-16T09:37:05;99093.38;;;18.07;67.75
35226;BME280;21813;49.686;21.766;2022-10-16T09:42:35;99097.03;;;18.14;68.16
35226;BME280;21813;49.686;21.766;2022-10-16T09:45:03;99086.03;;;18.19;67.30
35226;BME280;21813;49.686;21.766;2022-10-16T09:47:30;99087.00;;;18.18;67.02
35226;BME280;21813;49.686;21.766;2022-10-16T09:50:05;99099.53;;;18.16;66.47
35226;BME280;21813;49.686;21.766;2022-10-16T09:52:44;99093.88;;;18.10;66.42
35226;BME280;21813;49.686;21.766;2022-10-16T09:55:16;99093.50;;;18.05;66.43
35226;BME280;21813;49.686;21.766;2022-10-16T09:57:52;99102.13;;;18.07;67.54
35226;BME280;21813;49.686;21.766;2022-10-16T10:00:19;99104.19;;;18.04;66.82
35226;BME280;21813;49.686;21.766;2022-10-16T10:02:46;99091.00;;;18.04;67.09
35226;BME280;21813;49.686;21.766;2022-10-16T10:05:25;99103.91;;;18.07;66.75
35226;BME280;21813;49.686;21.766;2022-10-16T10:07:57;99106.25;;;18.10;66.81
35226;BME280;21813;49.686;21.766;2022-10-16T10:10:32;99105.13;;;18.13;67.25
35226;BME280;21813;49.686;21.766;2022-10-16T10:13:04;99101.78;;;18.10;67.32
35226;BME280;21813;49.686;21.766;2022-10-16T10:15:55;99096.47;;;18.02;66.47
35226;BME280;21813;49.686;21.766;2022-10-16T10:18:30;99099.69;;;17.96;66.63
35226;BME280;21813;49.686;21.766;2022-10-16T11:07:38;99096.16;;;18.49;64.60
35226;BME280;21813;49.686;21.766;2022-10-16T11:10:54;99098.81;;;18.49;64.79
35226;BME280;21813;49.686;21.766;2022-10-16T11:26:55;99098.13;;;18.73;63.86
35226;BME280;21813;49.686;21.766;2022-10-16T11:32:56;99093.06;;;18.79;62.95
35226;BME280;21813;49.686;21.766;2022-10-16T12:11:19;99080.09;;;18.17;63.80
35226;BME280;21813;49.686;21.766;2022-10-16T12:13:46;99075.47;;;18.19;64.29
35226;BME280;21813;49.686;21.766;2022-10-16T12:18:44;99077.00;;;18.21;64.67
35226;BME280;21813;49.686;21.766;2022-10-16T12:21:12;99081.13;;;18.24;64.89
35226;BME280;21813;49.686;21.766;2022-10-16T12:23:52;99074.19;;;18.23;63.78
35226;BME280;21813;49.686;21.766;2022-10-16T12:26:28;99081.25;;;18.22;63.72
35226;BME280;21813;49.686;21.766;2022-10-16T12:29:12;99078.09;;;18.19;64.77
35226;BME280;21813;49.686;21.766;2022-10-16T12:31:45;99072.00;;;18.18;63.84
35226;BME280;21813;49.686;21.766;2022-10-16T12:34:23;99081.44;;;18.21;63.45
35226;BME280;21813;49.686;21.766;2022-10-16T12:37:11;99077.06;;;18.12;63.65
35226;BME280;21813;49.686;21.766;2022-10-16T12:39:41;99073.75;;;18.09;64.17
35226;BME280;21813;49.686;21.766;2022-10-16T12:42:33;99075.56;;;18.09;64.21
35226;BME280;21813;49.686;21.766;2022-10-16T12:47:53;99076.38;;;18.09;64.73
35226;BME280;21813;49.686;21.766;2022-10-16T12:50:30;99078.75;;;18.13;64.40
35226;BME280;21813;49.686;21.766;2022-10-16T12:52:58;99078.75;;;18.13;63.83
35226;BME280;21813;49.686;21.766;2022-10-16T12:55:24;99076.75;;;18.15;63.75
35226;BME280;21813;49.686;21.766;2022-10-16T12:58:17;99083.38;;;18.19;63.49
35226;BME280;21813;49.686;21.766;2022-10-16T13:00:53;99081.72;;;18.18;63.34
35226;BME280;21813;49.686;21.766;2022-10-16T13:06:25;99085.88;;;18.20;64.04
35226;BME280;21813;49.686;21.766;2022-10-16T13:18:08;99083.28;;;18.28;63.54
35226;BME280;21813;49.686;21.766;2022-10-16T13:21:04;99075.84;;;18.24;63.68
35226;BME280;21813;49.686;21.766;2022-10-16T13:24:08;99092.00;;;18.21;63.33
35226;BME280;21813;49.686;21.766;2022-10-16T13:26:53;99094.78;;;18.19;63.74
35226;BME280;21813;49.686;21.766;2022-10-16T13:29:30;99098.19;;;18.12;64.38
35226;BME280;21813;49.686;21.766;2022-10-16T13:32:10;99082.94;;;18.05;64.58
35226;BME280;21813;49.686;21.766;2022-10-16T13:34:45;99082.88;;;17.97;64.85
35226;BME280;21813;49.686;21.766;2022-10-16T13:37:20;99091.91;;;17.95;64.90
35226;BME280;21813;49.686;21.766;2022-10-16T13:39:47;99087.78;;;17.92;65.69
35226;BME280;21813;49.686;21.766;2022-10-16T13:42:18;99100.00;;;17.93;65.62
35226;BME280;21813;49.686;21.766;2022-10-16T13:44:52;99097.50;;;17.92;65.92
35226;BME280;21813;49.686;21.766;2022-10-16T13:47:27;99100.97;;;17.92;66.39
35226;BME280;21813;49.686;21.766;2022-10-16T13:50:02;99105.56;;;17.90;66.24
35226;BME280;21813;49.686;21.766;2022-10-16T13:52:30;99124.72;;;17.92;66.36
35226;BME280;21813;49.686;21.766;2022-10-16T13:54:56;99118.22;;;17.87;66.36
35226;BME280;21813;49.686;21.766;2022-10-16T13:57:26;99117.25;;;17.88;66.55
35226;BME280;21813;49.686;21.766;2022-10-16T14:00:28;99126.97;;;17.87;66.80
35226;BME280;21813;49.686;21.766;2022-10-16T14:03:24;99128.25;;;17.83;67.21
35226;BME280;21813;49.686;21.766;2022-10-16T14:06:24;99139.47;;;17.85;67.54
35226;BME280;21813;49.686;21.766;2022-10-16T14:12:25;99137.97;;;17.83;67.03
35226;BME280;21813;49.686;21.766;2022-10-16T14:14:54;99128.97;;;17.76;66.95
35226;BME280;21813;49.686;21.766;2022-10-16T14:17:50;99126.50;;;17.74;67.12
35226;BME280;21813;49.686;21.766;2022-10-16T14:20:18;99140.66;;;17.73;66.82
35226;BME280;21813;49.686;21.766;2022-10-16T14:22:44;99141.25;;;17.67;67.49
35226;BME280;21813;49.686;21.766;2022-10-16T14:25:47;99133.78;;;17.62;67.59
35226;BME280;21813;49.686;21.766;2022-10-16T14:34:22;99139.00;;;17.45;68.94
35226;BME280;21813;49.686;21.766;2022-10-16T14:37:36;99135.31;;;17.38;68.82
35226;BME280;21813;49.686;21.766;2022-10-16T18:11:58;99298.22;;;14.10;81.54
35226;BME280;21813;49.686;21.766;2022-10-16T18:15:04;99302.75;;;14.08;81.68
35226;BME280;21813;49.686;21.766;2022-10-16T18:24:15;99308.13;;;13.95;82.96
35226;BME280;21813;49.686;21.766;2022-10-16T18:26:41;99311.31;;;13.88;82.91
35226;BME280;21813;49.686;21.766;2022-10-16T18:29:09;99313.09;;;13.87;83.44
35226;BME280;21813;49.686;21.766;2022-10-16T18:31:38;99320.16;;;13.87;83.63
35226;BME280;21813;49.686;21.766;2022-10-16T18:34:22;99320.03;;;13.77;83.92
35226;BME280;21813;49.686;21.766;2022-10-16T18:36:52;99324.44;;;13.77;83.65
35226;BME280;21813;49.686;21.766;2022-10-16T18:39:19;99332.31;;;13.77;83.95
35226;BME280;21813;49.686;21.766;2022-10-16T18:41:49;99328.25;;;13.73;83.91
35226;BME280;21813;49.686;21.766;2022-10-16T18:44:16;99326.59;;;13.71;84.22
35226;BME280;21813;49.686;21.766;2022-10-16T18:46:43;99333.03;;;13.67;84.30
35226;BME280;21813;49.686;21.766;2022-10-16T18:49:08;99334.44;;;13.71;84.11
35226;BME280;21813;49.686;21.766;2022-10-16T18:51:37;99324.06;;;13.70;84.17
35226;BME280;21813;49.686;21.766;2022-10-16T18:54:10;99325.75;;;13.71;84.64
35226;BME280;21813;49.686;21.766;2022-10-16T18:56:37;99324.22;;;13.68;84.72
35226;BME280;21813;49.686;21.766;2022-10-16T18:59:07;99319.69;;;13.70;84.34
35226;BME280;21813;49.686;21.766;2022-10-16T19:01:36;99318.00;;;13.69;84.35
35226;BME280;21813;49.686;21.766;2022-10-16T19:04:05;99330.16;;;13.70;84.36
35226;BME280;21813;49.686;21.766;2022-10-16T19:06:35;99338.97;;;13.69;84.73
35226;BME280;21813;49.686;21.766;2022-10-16T19:09:01;99340.63;;;13.70;84.77
35226;BME280;21813;49.686;21.766;2022-10-16T19:11:29;99339.94;;;13.68;84.44
35226;BME280;21813;49.686;21.766;2022-10-16T19:13:56;99346.97;;;13.68;84.68
35226;BME280;21813;49.686;21.766;2022-10-16T19:16:25;99354.47;;;13.73;84.47
35226;BME280;21813;49.686;21.766;2022-10-16T19:18:53;99352.78;;;13.71;84.51